Tatui, Brazil
Current Conditions -  °F | °C
As of 6:00 PM on Sunday 25 Jan 2015 (Local Time) from SBKP Reporting Station
Few Clouds Few Clouds  
Wind Chill: 82°   Ceiling: Unl
Heat Index: 83°   Visibility: 6mi
Dew Point: 63°   Wind: 8mph
Humidity: 51%   Direction: 320°NW
Pressure: 29.91"   Gusts: NA
Location:  23.35°S, 47.86°W
Report Text: SBKP 252000Z 32007KT 9999 FEW045 FEW050TCU 28/17 Q1013
Loading
Personal Weather Stations






























Interactive Weather Map New forecast layout! Learn more

10-Day Weather Forecast

Advertisements
Track Severe Weather on mobile